sensor_id;sensor_type;location;lat;lon;timestamp;P1;durP1;ratioP1;P2;durP2;ratioP2
19780;SDS011;10050;55.492;13.506;2022-08-01T00:01:15;4.03;;;2.00;;
19780;SDS011;10050;55.492;13.506;2022-08-01T00:03:41;2.90;;;2.27;;
19780;SDS011;10050;55.492;13.506;2022-08-01T00:06:07;2.60;;;2.33;;
19780;SDS011;10050;55.492;13.506;2022-08-01T00:08:32;2.20;;;2.10;;
19780;SDS011;10050;55.492;13.506;2022-08-01T00:10:58;3.83;;;2.40;;
19780;SDS011;10050;55.492;13.506;2022-08-01T00:13:24;2.57;;;2.37;;
19780;SDS011;10050;55.492;13.506;2022-08-01T00:15:49;2.70;;;2.17;;
19780;SDS011;10050;55.492;13.506;2022-08-01T00:18:15;3.83;;;2.50;;
19780;SDS011;10050;55.492;13.506;2022-08-01T00:20:40;2.33;;;2.23;;
19780;SDS011;10050;55.492;13.506;2022-08-01T00:23:06;2.43;;;2.23;;
19780;SDS011;10050;55.492;13.506;2022-08-01T00:25:31;2.33;;;2.23;;
19780;SDS011;10050;55.492;13.506;2022-08-01T00:27:57;2.40;;;2.20;;
19780;SDS011;10050;55.492;13.506;2022-08-01T00:30:23;2.03;;;1.93;;
19780;SDS011;10050;55.492;13.506;2022-08-01T00:32:48;1.97;;;1.87;;
19780;SDS011;10050;55.492;13.506;2022-08-01T00:35:14;2.10;;;2.00;;
19780;SDS011;10050;55.492;13.506;2022-08-01T00:37:39;2.47;;;2.07;;
19780;SDS011;10050;55.492;13.506;2022-08-01T00:40:06;2.30;;;2.10;;
19780;SDS011;10050;55.492;13.506;2022-08-01T00:42:32;2.77;;;1.93;;
19780;SDS011;10050;55.492;13.506;2022-08-01T00:44:57;2.33;;;2.07;;
19780;SDS011;10050;55.492;13.506;2022-08-01T00:47:23;2.07;;;1.97;;
19780;SDS011;10050;55.492;13.506;2022-08-01T00:49:49;2.70;;;2.37;;
19780;SDS011;10050;55.492;13.506;2022-08-01T00:52:14;3.00;;;2.50;;
19780;SDS011;10050;55.492;13.506;2022-08-01T00:54:40;3.57;;;1.90;;
19780;SDS011;10050;55.492;13.506;2022-08-01T00:57:06;2.27;;;1.93;;
19780;SDS011;10050;55.492;13.506;2022-08-01T00:59:32;1.90;;;1.80;;
19780;SDS011;10050;55.492;13.506;2022-08-01T01:01:59;2.20;;;2.10;;
19780;SDS011;10050;55.492;13.506;2022-08-01T01:04:25;4.57;;;2.20;;
19780;SDS011;10050;55.492;13.506;2022-08-01T01:09:39;2.10;;;1.90;;
19780;SDS011;10050;55.492;13.506;2022-08-01T01:17:41;1.60;;;1.50;;
19780;SDS011;10050;55.492;13.506;2022-08-01T01:20:13;1.87;;;1.77;;
19780;SDS011;10050;55.492;13.506;2022-08-01T01:22:47;2.00;;;1.90;;
19780;SDS011;10050;55.492;13.506;2022-08-01T01:25:37;2.30;;;2.10;;
19780;SDS011;10050;55.492;13.506;2022-08-01T01:28:12;1.57;;;1.53;;
19780;SDS011;10050;55.492;13.506;2022-08-01T01:30:44;2.97;;;1.80;;
19780;SDS011;10050;55.492;13.506;2022-08-01T01:33:13;2.10;;;2.00;;
19780;SDS011;10050;55.492;13.506;2022-08-01T01:35:51;2.37;;;2.13;;
19780;SDS011;10050;55.492;13.506;2022-08-01T01:38:23;2.53;;;1.93;;
19780;SDS011;10050;55.492;13.506;2022-08-01T01:40:52;1.77;;;1.57;;
19780;SDS011;10050;55.492;13.506;2022-08-01T01:43:18;2.20;;;2.00;;
19780;SDS011;10050;55.492;13.506;2022-08-01T01:45:45;2.33;;;1.67;;
19780;SDS011;10050;55.492;13.506;2022-08-01T01:48:13;1.87;;;1.77;;
19780;SDS011;10050;55.492;13.506;2022-08-01T01:50:43;1.77;;;1.67;;
19780;SDS011;10050;55.492;13.506;2022-08-01T01:53:12;2.23;;;2.07;;
19780;SDS011;10050;55.492;13.506;2022-08-01T01:55:40;1.73;;;1.63;;
19780;SDS011;10050;55.492;13.506;2022-08-01T01:58:08;2.23;;;2.03;;
19780;SDS011;10050;55.492;13.506;2022-08-01T02:00:38;1.73;;;1.63;;
19780;SDS011;10050;55.492;13.506;2022-08-01T02:03:06;2.37;;;2.03;;
19780;SDS011;10050;55.492;13.506;2022-08-01T02:05:33;2.07;;;1.93;;
19780;SDS011;10050;55.492;13.506;2022-08-01T02:08:02;1.77;;;1.67;;
19780;SDS011;10050;55.492;13.506;2022-08-01T02:10:29;1.90;;;1.80;;
19780;SDS011;10050;55.492;13.506;2022-08-01T02:12:57;3.30;;;1.50;;
19780;SDS011;10050;55.492;13.506;2022-08-01T02:15:25;1.73;;;1.63;;
19780;SDS011;10050;55.492;13.506;2022-08-01T02:17:53;2.50;;;2.17;;
19780;SDS011;10050;55.492;13.506;2022-08-01T02:20:19;2.23;;;1.83;;
19780;SDS011;10050;55.492;13.506;2022-08-01T02:25:46;1.77;;;1.67;;
19780;SDS011;10050;55.492;13.506;2022-08-01T02:28:15;2.07;;;1.97;;
19780;SDS011;10050;55.492;13.506;2022-08-01T02:30:52;3.93;;;2.40;;
19780;SDS011;10050;55.492;13.506;2022-08-01T02:33:22;3.57;;;1.80;;
19780;SDS011;10050;55.492;13.506;2022-08-01T02:35:52;2.47;;;2.27;;
19780;SDS011;10050;55.492;13.506;2022-08-01T02:38:23;3.90;;;1.63;;
19780;SDS011;10050;55.492;13.506;2022-08-01T02:40:52;3.20;;;2.13;;
19780;SDS011;10050;55.492;13.506;2022-08-01T02:43:23;2.00;;;1.80;;
19780;SDS011;10050;55.492;13.506;2022-08-01T02:45:53;2.17;;;1.97;;
19780;SDS011;10050;55.492;13.506;2022-08-01T02:48:22;1.43;;;1.33;;
19780;SDS011;10050;55.492;13.506;2022-08-01T02:50:51;2.03;;;1.77;;
19780;SDS011;10050;55.492;13.506;2022-08-01T02:53:19;3.10;;;1.77;;
19780;SDS011;10050;55.492;13.506;2022-08-01T02:55:46;1.30;;;1.30;;
19780;SDS011;10050;55.492;13.506;2022-08-01T02:58:16;1.90;;;1.80;;
19780;SDS011;10050;55.492;13.506;2022-08-01T03:00:44;4.03;;;1.93;;
19780;SDS011;10050;55.492;13.506;2022-08-01T03:03:11;2.03;;;1.83;;
19780;SDS011;10050;55.492;13.506;2022-08-01T03:05:38;1.93;;;1.50;;
19780;SDS011;10050;55.492;13.506;2022-08-01T03:08:06;3.33;;;1.40;;
19780;SDS011;10050;55.492;13.506;2022-08-01T03:10:34;1.60;;;1.33;;
19780;SDS011;10050;55.492;13.506;2022-08-01T03:13:03;2.37;;;1.87;;
19780;SDS011;10050;55.492;13.506;2022-08-01T03:15:31;1.80;;;1.70;;
19780;SDS011;10050;55.492;13.506;2022-08-01T03:17:58;2.47;;;1.70;;
19780;SDS011;10050;55.492;13.506;2022-08-01T03:20:26;2.30;;;1.90;;
19780;SDS011;10050;55.492;13.506;2022-08-01T03:22:53;1.60;;;1.50;;
19780;SDS011;10050;55.492;13.506;2022-08-01T03:25:21;1.50;;;1.40;;
19780;SDS011;10050;55.492;13.506;2022-08-01T03:27:50;5.07;;;1.97;;
19780;SDS011;10050;55.492;13.506;2022-08-01T03:30:20;1.70;;;1.60;;
19780;SDS011;10050;55.492;13.506;2022-08-01T03:32:47;1.83;;;1.53;;
19780;SDS011;10050;55.492;13.506;2022-08-01T03:35:13;2.13;;;1.73;;
19780;SDS011;10050;55.492;13.506;2022-08-01T03:37:45;1.50;;;1.40;;
19780;SDS011;10050;55.492;13.506;2022-08-01T03:40:15;2.30;;;1.43;;
19780;SDS011;10050;55.492;13.506;2022-08-01T03:42:53;1.77;;;1.60;;
19780;SDS011;10050;55.492;13.506;2022-08-01T03:45:24;1.97;;;1.77;;
19780;SDS011;10050;55.492;13.506;2022-08-01T03:47:53;2.50;;;1.87;;
19780;SDS011;10050;55.492;13.506;2022-08-01T03:50:25;3.07;;;1.60;;
19780;SDS011;10050;55.492;13.506;2022-08-01T03:52:53;1.53;;;1.30;;
19780;SDS011;10050;55.492;13.506;2022-08-01T03:55:22;3.20;;;1.50;;
19780;SDS011;10050;55.492;13.506;2022-08-01T03:57:49;2.97;;;1.47;;
19780;SDS011;10050;55.492;13.506;2022-08-01T04:00:15;3.23;;;1.37;;
19780;SDS011;10050;55.492;13.506;2022-08-01T04:02:43;2.20;;;1.63;;
19780;SDS011;10050;55.492;13.506;2022-08-01T04:05:13;2.90;;;2.00;;
19780;SDS011;10050;55.492;13.506;2022-08-01T04:07:40;2.63;;;1.60;;
19780;SDS011;10050;55.492;13.506;2022-08-01T04:10:11;1.90;;;1.67;;
19780;SDS011;10050;55.492;13.506;2022-08-01T04:12:37;1.97;;;1.60;;
19780;SDS011;10050;55.492;13.506;2022-08-01T04:15:03;2.60;;;2.03;;
19780;SDS011;10050;55.492;13.506;2022-08-01T04:17:30;2.50;;;1.83;;
19780;SDS011;10050;55.492;13.506;2022-08-01T04:19:56;3.00;;;1.70;;
19780;SDS011;10050;55.492;13.506;2022-08-01T04:22:21;1.90;;;1.80;;
19780;SDS011;10050;55.492;13.506;2022-08-01T04:24:48;2.10;;;2.00;;
19780;SDS011;10050;55.492;13.506;2022-08-01T04:27:19;2.20;;;1.60;;
19780;SDS011;10050;55.492;13.506;2022-08-01T04:29:51;3.63;;;2.57;;
19780;SDS011;10050;55.492;13.506;2022-08-01T04:32:19;2.60;;;2.33;;
19780;SDS011;10050;55.492;13.506;2022-08-01T04:34:46;3.93;;;3.17;;
19780;SDS011;10050;55.492;13.506;2022-08-01T04:37:14;3.57;;;2.97;;
19780;SDS011;10050;55.492;13.506;2022-08-01T04:39:42;4.03;;;3.00;;
19780;SDS011;10050;55.492;13.506;2022-08-01T04:42:09;4.67;;;2.00;;
19780;SDS011;10050;55.492;13.506;2022-08-01T04:44:36;6.87;;;2.97;;
19780;SDS011;10050;55.492;13.506;2022-08-01T04:47:02;3.93;;;2.73;;
19780;SDS011;10050;55.492;13.506;2022-08-01T04:49:33;2.57;;;2.37;;
19780;SDS011;10050;55.492;13.506;2022-08-01T04:51:59;3.10;;;2.60;;
19780;SDS011;10050;55.492;13.506;2022-08-01T04:54:28;2.87;;;2.67;;
19780;SDS011;10050;55.492;13.506;2022-08-01T04:56:58;3.90;;;2.60;;
19780;SDS011;10050;55.492;13.506;2022-08-01T04:59:27;3.80;;;3.40;;
19780;SDS011;10050;55.492;13.506;2022-08-01T05:02:18;3.43;;;3.07;;
19780;SDS011;10050;55.492;13.506;2022-08-01T05:04:44;2.97;;;2.13;;
19780;SDS011;10050;55.492;13.506;2022-08-01T05:07:11;3.93;;;2.57;;
19780;SDS011;10050;55.492;13.506;2022-08-01T05:09:38;3.40;;;3.10;;
19780;SDS011;10050;55.492;13.506;2022-08-01T05:12:06;1.73;;;1.63;;
19780;SDS011;10050;55.492;13.506;2022-08-01T05:14:32;2.60;;;2.40;;
19780;SDS011;10050;55.492;13.506;2022-08-01T05:16:59;2.30;;;2.10;;
19780;SDS011;10050;55.492;13.506;2022-08-01T05:19:28;2.77;;;2.30;;
19780;SDS011;10050;55.492;13.506;2022-08-01T05:21:55;2.60;;;2.23;;
19780;SDS011;10050;55.492;13.506;2022-08-01T05:24:21;2.53;;;2.00;;
19780;SDS011;10050;55.492;13.506;2022-08-01T05:26:47;3.70;;;3.40;;
19780;SDS011;10050;55.492;13.506;2022-08-01T05:29:14;4.37;;;2.97;;
19780;SDS011;10050;55.492;13.506;2022-08-01T05:31:40;2.73;;;2.53;;
19780;SDS011;10050;55.492;13.506;2022-08-01T05:34:06;5.20;;;2.37;;
19780;SDS011;10050;55.492;13.506;2022-08-01T05:36:31;3.30;;;3.10;;
19780;SDS011;10050;55.492;13.506;2022-08-01T05:38:57;3.23;;;2.93;;
19780;SDS011;10050;55.492;13.506;2022-08-01T05:41:23;3.03;;;2.70;;
19780;SDS011;10050;55.492;13.506;2022-08-01T05:43:48;3.60;;;3.27;;
19780;SDS011;10050;55.492;13.506;2022-08-01T05:46:14;3.17;;;2.83;;
19780;SDS011;10050;55.492;13.506;2022-08-01T05:48:40;2.40;;;2.10;;
19780;SDS011;10050;55.492;13.506;2022-08-01T05:51:05;3.97;;;3.03;;
19780;SDS011;10050;55.492;13.506;2022-08-01T05:53:31;4.03;;;3.20;;
19780;SDS011;10050;55.492;13.506;2022-08-01T05:55:59;2.43;;;2.30;;
19780;SDS011;10050;55.492;13.506;2022-08-01T05:58:25;4.23;;;3.40;;
19780;SDS011;10050;55.492;13.506;2022-08-01T06:00:51;3.60;;;3.30;;
19780;SDS011;10050;55.492;13.506;2022-08-01T06:03:16;6.60;;;2.87;;
19780;SDS011;10050;55.492;13.506;2022-08-01T06:05:42;2.33;;;2.13;;
19780;SDS011;10050;55.492;13.506;2022-08-01T06:08:08;2.20;;;2.00;;
19780;SDS011;10050;55.492;13.506;2022-08-01T06:10:34;3.00;;;2.20;;
19780;SDS011;10050;55.492;13.506;2022-08-01T06:12:59;3.50;;;2.67;;
19780;SDS011;10050;55.492;13.506;2022-08-01T06:15:28;2.40;;;2.20;;
19780;SDS011;10050;55.492;13.506;2022-08-01T06:17:54;4.60;;;2.13;;
19780;SDS011;10050;55.492;13.506;2022-08-01T06:20:20;2.10;;;1.90;;
19780;SDS011;10050;55.492;13.506;2022-08-01T06:22:46;3.53;;;1.90;;
19780;SDS011;10050;55.492;13.506;2022-08-01T06:25:11;2.83;;;2.07;;
19780;SDS011;10050;55.492;13.506;2022-08-01T06:27:37;3.13;;;2.80;;
19780;SDS011;10050;55.492;13.506;2022-08-01T06:30:03;2.77;;;1.73;;
19780;SDS011;10050;55.492;13.506;2022-08-01T06:32:30;1.60;;;1.50;;
19780;SDS011;10050;55.492;13.506;2022-08-01T06:34:56;2.20;;;1.77;;
19780;SDS011;10050;55.492;13.506;2022-08-01T06:37:22;4.47;;;2.90;;
19780;SDS011;10050;55.492;13.506;2022-08-01T06:39:48;1.97;;;1.87;;
19780;SDS011;10050;55.492;13.506;2022-08-01T06:42:14;3.20;;;2.20;;
19780;SDS011;10050;55.492;13.506;2022-08-01T06:44:40;1.77;;;1.60;;
19780;SDS011;10050;55.492;13.506;2022-08-01T06:47:06;2.10;;;2.00;;
19780;SDS011;10050;55.492;13.506;2022-08-01T06:49:31;4.17;;;3.27;;
19780;SDS011;10050;55.492;13.506;2022-08-01T06:51:57;3.07;;;2.47;;
19780;SDS011;10050;55.492;13.506;2022-08-01T06:54:23;4.30;;;2.47;;
19780;SDS011;10050;55.492;13.506;2022-08-01T06:56:48;2.73;;;1.90;;
19780;SDS011;10050;55.492;13.506;2022-08-01T06:59:14;3.60;;;2.83;;
19780;SDS011;10050;55.492;13.506;2022-08-01T07:01:40;3.83;;;2.53;;
19780;SDS011;10050;55.492;13.506;2022-08-01T07:04:06;3.03;;;2.10;;
19780;SDS011;10050;55.492;13.506;2022-08-01T07:06:32;2.50;;;2.20;;
19780;SDS011;10050;55.492;13.506;2022-08-01T07:08:57;1.87;;;1.77;;
19780;SDS011;10050;55.492;13.506;2022-08-01T07:11:23;3.27;;;1.97;;
19780;SDS011;10050;55.492;13.506;2022-08-01T07:13:49;3.30;;;2.30;;
19780;SDS011;10050;55.492;13.506;2022-08-01T07:16:15;3.30;;;2.00;;
19780;SDS011;10050;55.492;13.506;2022-08-01T07:18:41;2.20;;;2.00;;
19780;SDS011;10050;55.492;13.506;2022-08-01T07:21:07;2.30;;;2.10;;
19780;SDS011;10050;55.492;13.506;2022-08-01T07:23:32;1.90;;;1.63;;
19780;SDS011;10050;55.492;13.506;2022-08-01T07:25:58;1.80;;;1.70;;
19780;SDS011;10050;55.492;13.506;2022-08-01T07:28:26;2.30;;;2.10;;
19780;SDS011;10050;55.492;13.506;2022-08-01T07:30:52;2.00;;;1.90;;
19780;SDS011;10050;55.492;13.506;2022-08-01T07:33:18;2.93;;;2.33;;
19780;SDS011;10050;55.492;13.506;2022-08-01T07:35:43;2.40;;;1.70;;
19780;SDS011;10050;55.492;13.506;2022-08-01T07:38:09;2.50;;;2.30;;
19780;SDS011;10050;55.492;13.506;2022-08-01T07:40:35;3.37;;;2.40;;
19780;SDS011;10050;55.492;13.506;2022-08-01T07:43:00;2.73;;;2.53;;
19780;SDS011;10050;55.492;13.506;2022-08-01T07:45:26;3.13;;;2.90;;
19780;SDS011;10050;55.492;13.506;2022-08-01T07:47:52;2.77;;;2.57;;
19780;SDS011;10050;55.492;13.506;2022-08-01T07:50:18;2.63;;;2.40;;
19780;SDS011;10050;55.492;13.506;2022-08-01T07:52:43;2.63;;;2.37;;
19780;SDS011;10050;55.492;13.506;2022-08-01T07:55:10;2.67;;;2.30;;
19780;SDS011;10050;55.492;13.506;2022-08-01T07:57:36;2.20;;;2.10;;
19780;SDS011;10050;55.492;13.506;2022-08-01T08:00:06;3.33;;;2.67;;
19780;SDS011;10050;55.492;13.506;2022-08-01T08:02:33;2.23;;;2.03;;
19780;SDS011;10050;55.492;13.506;2022-08-01T08:04:59;2.67;;;2.10;;
19780;SDS011;10050;55.492;13.506;2022-08-01T08:07:25;2.53;;;1.87;;
19780;SDS011;10050;55.492;13.506;2022-08-01T08:09:50;1.83;;;1.73;;
19780;SDS011;10050;55.492;13.506;2022-08-01T08:12:16;2.63;;;2.03;;
19780;SDS011;10050;55.492;13.506;2022-08-01T08:14:41;2.27;;;2.10;;
19780;SDS011;10050;55.492;13.506;2022-08-01T08:17:07;3.43;;;2.60;;
19780;SDS011;10050;55.492;13.506;2022-08-01T08:19:33;3.23;;;2.30;;
19780;SDS011;10050;55.492;13.506;2022-08-01T08:21:59;3.03;;;2.43;;
19780;SDS011;10050;55.492;13.506;2022-08-01T08:24:25;2.73;;;2.50;;
19780;SDS011;10050;55.492;13.506;2022-08-01T08:26:55;3.10;;;2.87;;
19780;SDS011;10050;55.492;13.506;2022-08-01T08:29:23;5.33;;;2.70;;
19780;SDS011;10050;55.492;13.506;2022-08-01T08:31:51;2.30;;;2.20;;
19780;SDS011;10050;55.492;13.506;2022-08-01T08:34:18;3.37;;;2.20;;
19780;SDS011;10050;55.492;13.506;2022-08-01T08:36:44;2.27;;;2.10;;
19780;SDS011;10050;55.492;13.506;2022-08-01T08:39:09;2.50;;;2.30;;
19780;SDS011;10050;55.492;13.506;2022-08-01T08:41:35;2.77;;;2.57;;
19780;SDS011;10050;55.492;13.506;2022-08-01T08:44:05;4.57;;;2.60;;
19780;SDS011;10050;55.492;13.506;2022-08-01T08:46:32;3.30;;;3.00;;
19780;SDS011;10050;55.492;13.506;2022-08-01T08:48:58;3.47;;;3.20;;
19780;SDS011;10050;55.492;13.506;2022-08-01T08:51:26;3.20;;;2.90;;
19780;SDS011;10050;55.492;13.506;2022-08-01T08:53:55;2.43;;;2.23;;
19780;SDS011;10050;55.492;13.506;2022-08-01T08:56:23;2.80;;;2.60;;
19780;SDS011;10050;55.492;13.506;2022-08-01T08:58:50;4.63;;;2.50;;
19780;SDS011;10050;55.492;13.506;2022-08-01T09:01:16;2.80;;;2.60;;
19780;SDS011;10050;55.492;13.506;2022-08-01T09:03:43;3.00;;;2.80;;
19780;SDS011;10050;55.492;13.506;2022-08-01T09:06:09;2.80;;;2.60;;
19780;SDS011;10050;55.492;13.506;2022-08-01T09:08:35;4.30;;;3.43;;
19780;SDS011;10050;55.492;13.506;2022-08-01T09:11:02;5.47;;;3.90;;
19780;SDS011;10050;55.492;13.506;2022-08-01T09:13:28;3.43;;;3.10;;
19780;SDS011;10050;55.492;13.506;2022-08-01T09:15:54;3.93;;;3.03;;
19780;SDS011;10050;55.492;13.506;2022-08-01T09:18:28;4.90;;;3.77;;
19780;SDS011;10050;55.492;13.506;2022-08-01T09:21:18;3.60;;;3.23;;
19780;SDS011;10050;55.492;13.506;2022-08-01T09:23:45;3.87;;;3.00;;
19780;SDS011;10050;55.492;13.506;2022-08-01T09:26:30;3.07;;;2.80;;
19780;SDS011;10050;55.492;13.506;2022-08-01T09:28:57;3.10;;;2.90;;
19780;SDS011;10050;55.492;13.506;2022-08-01T09:31:27;3.13;;;2.83;;
19780;SDS011;10050;55.492;13.506;2022-08-01T09:33:57;3.07;;;2.83;;
19780;SDS011;10050;55.492;13.506;2022-08-01T09:36:26;3.50;;;3.10;;
19780;SDS011;10050;55.492;13.506;2022-08-01T09:39:14;2.60;;;2.40;;
19780;SDS011;10050;55.492;13.506;2022-08-01T09:41:40;3.33;;;2.57;;
19780;SDS011;10050;55.492;13.506;2022-08-01T09:44:06;2.70;;;2.50;;
19780;SDS011;10050;55.492;13.506;2022-08-01T09:46:32;2.40;;;2.10;;
19780;SDS011;10050;55.492;13.506;2022-08-01T09:48:58;4.70;;;2.80;;
19780;SDS011;10050;55.492;13.506;2022-08-01T09:51:33;3.57;;;2.53;;
19780;SDS011;10050;55.492;13.506;2022-08-01T09:54:02;4.23;;;3.27;;
19780;SDS011;10050;55.492;13.506;2022-08-01T09:56:39;4.23;;;2.70;;
19780;SDS011;10050;55.492;13.506;2022-08-01T09:59:10;6.23;;;2.90;;
19780;SDS011;10050;55.492;13.506;2022-08-01T10:01:46;2.93;;;2.73;;
19780;SDS011;10050;55.492;13.506;2022-08-01T10:04:14;3.80;;;3.20;;
19780;SDS011;10050;55.492;13.506;2022-08-01T10:06:43;3.90;;;2.90;;
19780;SDS011;10050;55.492;13.506;2022-08-01T10:09:14;6.93;;;3.30;;
19780;SDS011;10050;55.492;13.506;2022-08-01T10:11:41;3.37;;;3.07;;
19780;SDS011;10050;55.492;13.506;2022-08-01T10:14:07;3.60;;;3.10;;
19780;SDS011;10050;55.492;13.506;2022-08-01T10:16:34;6.20;;;4.47;;
19780;SDS011;10050;55.492;13.506;2022-08-01T10:19:02;4.53;;;4.03;;
19780;SDS011;10050;55.492;13.506;2022-08-01T10:21:31;7.03;;;4.17;;
19780;SDS011;10050;55.492;13.506;2022-08-01T10:23:58;6.20;;;4.47;;
19780;SDS011;10050;55.492;13.506;2022-08-01T10:26:27;7.60;;;4.77;;
19780;SDS011;10050;55.492;13.506;2022-08-01T10:28:57;8.03;;;4.50;;
19780;SDS011;10050;55.492;13.506;2022-08-01T10:31:22;4.37;;;4.03;;
19780;SDS011;10050;55.492;13.506;2022-08-01T10:33:49;4.83;;;4.43;;
19780;SDS011;10050;55.492;13.506;2022-08-01T10:36:17;5.00;;;4.47;;
19780;SDS011;10050;55.492;13.506;2022-08-01T10:38:45;5.23;;;4.17;;
19780;SDS011;10050;55.492;13.506;2022-08-01T10:41:11;5.70;;;4.33;;
19780;SDS011;10050;55.492;13.506;2022-08-01T10:43:40;4.53;;;4.13;;
19780;SDS011;10050;55.492;13.506;2022-08-01T10:46:06;5.10;;;4.30;;
19780;SDS011;10050;55.492;13.506;2022-08-01T10:51:11;7.27;;;5.90;;
19780;SDS011;10050;55.492;13.506;2022-08-01T10:53:45;11.27;;;6.10;;
19780;SDS011;10050;55.492;13.506;2022-08-01T10:56:13;5.97;;;5.07;;
19780;SDS011;10050;55.492;13.506;2022-08-01T10:58:39;7.20;;;6.17;;
19780;SDS011;10050;55.492;13.506;2022-08-01T11:01:26;8.73;;;5.80;;
19780;SDS011;10050;55.492;13.506;2022-08-01T11:07:13;6.53;;;4.70;;
19780;SDS011;10050;55.492;13.506;2022-08-01T11:14:25;7.87;;;5.53;;
19780;SDS011;10050;55.492;13.506;2022-08-01T11:16:51;6.63;;;5.50;;
19780;SDS011;10050;55.492;13.506;2022-08-01T11:19:17;8.73;;;5.60;;
19780;SDS011;10050;55.492;13.506;2022-08-01T11:24:33;5.63;;;4.70;;
19780;SDS011;10050;55.492;13.506;2022-08-01T11:27:21;5.50;;;4.20;;
19780;SDS011;10050;55.492;13.506;2022-08-01T11:32:50;4.83;;;4.33;;
19780;SDS011;10050;55.492;13.506;2022-08-01T11:35:20;5.43;;;4.13;;
19780;SDS011;10050;55.492;13.506;2022-08-01T11:37:51;6.10;;;4.10;;
19780;SDS011;10050;55.492;13.506;2022-08-01T11:42:51;4.47;;;4.00;;
19780;SDS011;10050;55.492;13.506;2022-08-01T11:45:51;7.27;;;4.40;;
19780;SDS011;10050;55.492;13.506;2022-08-01T11:48:20;5.10;;;4.60;;
19780;SDS011;10050;55.492;13.506;2022-08-01T11:50:47;6.23;;;4.57;;
19780;SDS011;10050;55.492;13.506;2022-08-01T11:53:14;4.80;;;4.40;;
19780;SDS011;10050;55.492;13.506;2022-08-01T11:55:44;4.83;;;4.30;;
19780;SDS011;10050;55.492;13.506;2022-08-01T11:58:12;4.40;;;4.00;;
19780;SDS011;10050;55.492;13.506;2022-08-01T12:00:38;4.80;;;4.30;;
19780;SDS011;10050;55.492;13.506;2022-08-01T12:03:04;5.03;;;4.53;;
19780;SDS011;10050;55.492;13.506;2022-08-01T12:05:32;5.07;;;4.67;;
19780;SDS011;10050;55.492;13.506;2022-08-01T12:08:02;5.40;;;4.87;;
19780;SDS011;10050;55.492;13.506;2022-08-01T12:10:30;6.00;;;5.50;;
19780;SDS011;10050;55.492;13.506;2022-08-01T12:13:02;4.73;;;4.37;;
19780;SDS011;10050;55.492;13.506;2022-08-01T12:15:31;4.90;;;4.50;;
19780;SDS011;10050;55.492;13.506;2022-08-01T12:17:59;4.20;;;3.70;;
19780;SDS011;10050;55.492;13.506;2022-08-01T12:20:27;5.37;;;4.87;;
19780;SDS011;10050;55.492;13.506;2022-08-01T12:23:04;4.57;;;4.17;;
19780;SDS011;10050;55.492;13.506;2022-08-01T12:25:32;6.73;;;6.13;;
19780;SDS011;10050;55.492;13.506;2022-08-01T12:28:02;6.40;;;5.03;;
19780;SDS011;10050;55.492;13.506;2022-08-01T12:30:29;4.87;;;4.17;;
19780;SDS011;10050;55.492;13.506;2022-08-01T12:32:56;3.30;;;3.10;;
19780;SDS011;10050;55.492;13.506;2022-08-01T12:35:23;3.33;;;2.70;;
19780;SDS011;10050;55.492;13.506;2022-08-01T12:37:52;2.47;;;2.27;;
19780;SDS011;10050;55.492;13.506;2022-08-01T12:40:20;4.40;;;2.60;;
19780;SDS011;10050;55.492;13.506;2022-08-01T12:42:48;2.77;;;2.57;;
19780;SDS011;10050;55.492;13.506;2022-08-01T12:45:36;4.90;;;2.70;;
19780;SDS011;10050;55.492;13.506;2022-08-01T12:48:07;3.80;;;3.00;;
19780;SDS011;10050;55.492;13.506;2022-08-01T12:50:36;5.17;;;4.00;;
19780;SDS011;10050;55.492;13.506;2022-08-01T12:53:07;6.20;;;3.37;;
19780;SDS011;10050;55.492;13.506;2022-08-01T12:55:34;7.90;;;3.70;;
19780;SDS011;10050;55.492;13.506;2022-08-01T12:58:13;9.60;;;3.97;;
19780;SDS011;10050;55.492;13.506;2022-08-01T13:00:40;8.03;;;3.63;;
19780;SDS011;10050;55.492;13.506;2022-08-01T13:03:09;9.90;;;3.50;;
19780;SDS011;10050;55.492;13.506;2022-08-01T13:05:40;6.17;;;3.37;;
19780;SDS011;10050;55.492;13.506;2022-08-01T13:08:20;6.63;;;3.53;;
19780;SDS011;10050;55.492;13.506;2022-08-01T13:11:02;6.87;;;3.43;;
19780;SDS011;10050;55.492;13.506;2022-08-01T13:13:49;4.93;;;3.70;;
19780;SDS011;10050;55.492;13.506;2022-08-01T13:16:16;8.53;;;3.33;;
19780;SDS011;10050;55.492;13.506;2022-08-01T13:18:53;4.63;;;3.13;;
19780;SDS011;10050;55.492;13.506;2022-08-01T13:21:21;6.23;;;3.50;;
19780;SDS011;10050;55.492;13.506;2022-08-01T13:24:04;5.40;;;3.20;;
19780;SDS011;10050;55.492;13.506;2022-08-01T13:26:41;7.13;;;3.37;;
19780;SDS011;10050;55.492;13.506;2022-08-01T13:29:12;5.40;;;2.67;;
19780;SDS011;10050;55.492;13.506;2022-08-01T13:31:39;3.47;;;2.27;;
19780;SDS011;10050;55.492;13.506;2022-08-01T13:34:06;4.63;;;2.50;;
19780;SDS011;10050;55.492;13.506;2022-08-01T13:36:32;4.63;;;2.07;;
19780;SDS011;10050;55.492;13.506;2022-08-01T13:38:58;6.50;;;2.10;;
19780;SDS011;10050;55.492;13.506;2022-08-01T13:41:42;7.27;;;1.97;;
19780;SDS011;10050;55.492;13.506;2022-08-01T13:44:08;6.10;;;2.77;;
19780;SDS011;10050;55.492;13.506;2022-08-01T13:46:35;1.60;;;1.50;;
19780;SDS011;10050;55.492;13.506;2022-08-01T13:49:02;3.67;;;1.30;;
19780;SDS011;10050;55.492;13.506;2022-08-01T13:51:29;4.67;;;1.37;;
19780;SDS011;10050;55.492;13.506;2022-08-01T13:53:54;3.17;;;1.47;;
19780;SDS011;10050;55.492;13.506;2022-08-01T13:56:20;5.00;;;1.43;;
19780;SDS011;10050;55.492;13.506;2022-08-01T13:58:46;2.37;;;1.30;;
19780;SDS011;10050;55.492;13.506;2022-08-01T14:01:12;2.27;;;1.37;;
19780;SDS011;10050;55.492;13.506;2022-08-01T14:03:37;3.40;;;1.30;;
19780;SDS011;10050;55.492;13.506;2022-08-01T14:06:03;4.20;;;1.20;;
19780;SDS011;10050;55.492;13.506;2022-08-01T14:08:29;2.20;;;1.13;;
19780;SDS011;10050;55.492;13.506;2022-08-01T14:10:55;3.23;;;1.10;;
19780;SDS011;10050;55.492;13.506;2022-08-01T14:13:23;1.10;;;1.00;;
19780;SDS011;10050;55.492;13.506;2022-08-01T14:15:50;3.20;;;1.07;;
19780;SDS011;10050;55.492;13.506;2022-08-01T14:18:16;4.47;;;1.17;;
19780;SDS011;10050;55.492;13.506;2022-08-01T14:20:42;2.07;;;1.20;;
19780;SDS011;10050;55.492;13.506;2022-08-01T14:23:08;2.40;;;1.13;;
19780;SDS011;10050;55.492;13.506;2022-08-01T14:25:37;3.27;;;1.67;;
19780;SDS011;10050;55.492;13.506;2022-08-01T14:28:04;2.57;;;1.40;;
19780;SDS011;10050;55.492;13.506;2022-08-01T14:30:31;4.47;;;1.23;;
19780;SDS011;10050;55.492;13.506;2022-08-01T14:32:57;2.67;;;1.10;;
19780;SDS011;10050;55.492;13.506;2022-08-01T14:35:23;2.47;;;1.40;;
19780;SDS011;10050;55.492;13.506;2022-08-01T14:37:49;3.47;;;1.30;;
19780;SDS011;10050;55.492;13.506;2022-08-01T14:40:15;2.67;;;1.20;;
19780;SDS011;10050;55.492;13.506;2022-08-01T14:42:41;1.63;;;1.33;;
19780;SDS011;10050;55.492;13.506;2022-08-01T14:45:09;3.77;;;1.30;;
19780;SDS011;10050;55.492;13.506;2022-08-01T14:47:36;5.80;;;1.40;;
19780;SDS011;10050;55.492;13.506;2022-08-01T14:50:06;4.37;;;1.40;;
19780;SDS011;10050;55.492;13.506;2022-08-01T14:52:34;7.60;;;1.50;;
19780;SDS011;10050;55.492;13.506;2022-08-01T14:55:01;2.73;;;1.20;;
19780;SDS011;10050;55.492;13.506;2022-08-01T14:57:27;5.20;;;1.37;;
19780;SDS011;10050;55.492;13.506;2022-08-01T14:59:53;3.67;;;1.23;;
19780;SDS011;10050;55.492;13.506;2022-08-01T15:02:18;5.13;;;1.50;;
19780;SDS011;10050;55.492;13.506;2022-08-01T15:04:44;3.67;;;2.03;;
19780;SDS011;10050;55.492;13.506;2022-08-01T15:07:11;4.63;;;1.77;;
19780;SDS011;10050;55.492;13.506;2022-08-01T15:09:37;3.93;;;1.30;;